Terminal Aerodrome Forecast
Issued by NWS Knoxville/Tri Cities, TN

Home | Current Version | Previous Version | Text Only | Print | Product List | Glossary On
Versions: 1 2 3 4 5 6 7 8 9 10 11 12 13 14 15 16 17 18 19 20 21 22 23 24 25 26 27 28 29 30 31 32 33 34 35 36 37 38
000
FTUS44 KMRX 011726
TAFTRI
TAF
KTRI 011726Z 0118/0218 VRB03KT P6SM FEW040 SCT250
     FM020600 00000KT 5SM BR SKC
     FM020900 00000KT 2SM BR SCT005
      TEMPO 0210/0213 1/2SM FG BKN003
     FM021400 00000KT P6SM SCT250=

USA.gov is the U.S. government's official web portal to all federal, state and local government web resources and services.